createdAt,value
2022-08-15T13:27:35.942Z,22.52
2022-08-15T13:30:19.710Z,22.15
2022-08-15T13:32:47.543Z,20.99
2022-08-15T13:35:17.903Z,21.15
2022-08-15T13:37:59.589Z,20.64
2022-08-15T13:40:31.112Z,20.50
2022-08-15T13:43:11.697Z,20.39
2022-08-15T13:45:56.249Z,20.42
2022-08-15T13:48:37.252Z,20.45
2022-08-15T13:51:13.289Z,21.17
2022-08-15T13:56:32.560Z,22.10
2022-08-15T13:59:01.277Z,22.46
2022-08-15T14:01:34.523Z,23.10
2022-08-15T14:04:06.511Z,23.30
2022-08-15T14:06:35.927Z,22.78
2022-08-15T14:09:17.728Z,22.53
2022-08-15T14:11:57.576Z,21.47
2022-08-15T14:14:36.631Z,21.32
2022-08-15T14:17:08.539Z,20.92
2022-08-15T14:20:02.813Z,20.67
2022-08-15T14:22:27.192Z,20.54
2022-08-15T14:25:15.283Z,21.23
2022-08-15T14:27:50.998Z,21.42
2022-08-15T14:30:19.620Z,21.40
2022-08-15T14:35:35.019Z,22.35
2022-08-15T14:38:12.418Z,21.99
2022-08-15T14:40:43.005Z,22.22
2022-08-15T14:43:17.601Z,22.11
2022-08-15T14:46:35.679Z,22.01
2022-08-15T14:48:47.169Z,22.31
2022-08-15T14:52:12.028Z,22.56
2022-08-15T14:54:43.588Z,22.64
2022-08-15T14:57:08.065Z,22.80
2022-08-15T14:59:56.831Z,23.99
2022-08-15T15:02:28.244Z,24.31
2022-08-15T15:04:57.867Z,25.13
2022-08-15T15:07:54.728Z,25.00
2022-08-15T15:10:25.183Z,25.49
2022-08-15T15:12:59.048Z,25.46
2022-08-15T15:15:28.078Z,25.83
2022-08-15T15:18:33.761Z,25.48
2022-08-15T15:20:57.651Z,26.15
2022-08-15T15:23:26.503Z,26.59
2022-08-15T15:25:54.093Z,26.73
2022-08-15T15:28:41.746Z,28.24
2022-08-15T15:31:12.057Z,27.77
2022-08-15T15:33:43.296Z,27.83
2022-08-15T15:36:28.863Z,28.31
2022-08-15T15:39:02.364Z,30.03
2022-08-15T15:41:45.942Z,30.89
2022-08-15T15:44:23.161Z,31.50
2022-08-15T15:46:54.349Z,32.83
2022-08-15T15:49:35.861Z,33.11
2022-08-15T15:52:09.800Z,33.56
2022-08-15T15:54:52.581Z,33.82
2022-08-15T15:57:21.265Z,34.12
2022-08-15T15:59:58.093Z,34.76
2022-08-15T16:02:43.610Z,35.17
2022-08-15T16:05:19.790Z,35.90
2022-08-15T16:07:55.822Z,36.14
2022-08-15T16:10:33.306Z,36.62
2022-08-15T16:13:06.338Z,37.10
2022-08-15T16:15:55.107Z,36.98
2022-08-15T16:18:34.917Z,37.69
2022-08-15T16:21:30.981Z,37.08
2022-08-15T16:24:07.127Z,38.19
2022-08-15T16:26:53.824Z,38.53
2022-08-15T16:29:33.476Z,39.36
2022-08-15T16:32:32.248Z,39.55
2022-08-15T16:35:07.837Z,40.38
2022-08-15T16:37:42.570Z,41.62
2022-08-15T16:40:24.018Z,41.08
2022-08-15T16:43:05.618Z,41.23
2022-08-15T16:46:00.584Z,41.57
2022-08-15T16:48:59.039Z,42.06
2022-08-15T16:51:55.718Z,42.47
2022-08-15T16:54:47.658Z,42.82
2022-08-15T16:57:27.569Z,43.15
2022-08-15T17:00:18.699Z,43.21
2022-08-15T17:03:10.483Z,43.87
2022-08-15T17:06:06.019Z,43.55
2022-08-15T17:08:50.338Z,44.07
2022-08-15T17:11:41.133Z,44.64
2022-08-15T17:14:47.977Z,45.87
2022-08-15T17:17:31.432Z,46.25
2022-08-15T17:20:01.010Z,46.38
2022-08-15T17:22:36.211Z,47.23
2022-08-15T17:25:36.514Z,46.24
2022-08-15T17:28:34.575Z,44.91
2022-08-15T17:31:09.901Z,46.59
2022-08-15T17:34:02.866Z,46.49
2022-08-15T17:36:50.410Z,45.79
2022-08-15T17:39:34.498Z,46.36
2022-08-15T17:42:01.849Z,46.28
2022-08-15T17:44:58.455Z,45.05
2022-08-15T17:47:35.369Z,45.02
2022-08-15T17:50:59.072Z,44.42
2022-08-15T17:53:30.628Z,44.75
2022-08-15T17:56:03.710Z,44.61
2022-08-15T17:58:34.454Z,44.76
2022-08-15T18:01:02.268Z,44.89
2022-08-15T18:03:29.831Z,45.26
2022-08-15T18:06:04.533Z,45.16
2022-08-15T18:08:36.588Z,45.27
2022-08-15T18:11:04.584Z,45.40
2022-08-15T18:13:39.452Z,45.65
2022-08-15T18:16:18.693Z,45.58
2022-08-15T18:18:47.328Z,45.87
2022-08-15T18:21:54.915Z,46.07
2022-08-15T18:24:52.327Z,45.58
2022-08-15T18:27:33.801Z,46.20
2022-08-15T18:30:16.850Z,46.32
2022-08-15T18:32:52.440Z,46.74
2022-08-15T18:35:27.636Z,46.98
2022-08-15T18:38:04.601Z,47.61
2022-08-15T18:40:58.415Z,47.82
2022-08-15T18:43:42.517Z,47.61
2022-08-15T18:46:14.344Z,48.30
2022-08-15T18:48:59.527Z,48.58
2022-08-15T18:51:33.647Z,48.72
2022-08-15T18:54:49.377Z,47.99
2022-08-15T18:57:43.590Z,49.11
2022-08-15T19:00:16.444Z,49.46
2022-08-15T19:02:44.363Z,49.59
2022-08-15T19:05:23.775Z,50.26
2022-08-15T19:07:54.989Z,50.91
2022-08-15T19:10:25.467Z,51.23
2022-08-15T19:13:15.923Z,51.44
2022-08-15T19:15:54.514Z,51.46
2022-08-15T19:18:35.172Z,51.88
2022-08-15T19:21:10.740Z,51.66
2022-08-15T19:23:47.762Z,51.90
2022-08-15T19:26:31.271Z,51.82
2022-08-15T19:29:33.423Z,52.20
2022-08-15T19:32:30.735Z,52.62
2022-08-15T19:35:16.325Z,53.27
2022-08-15T19:38:14.091Z,53.89
2022-08-15T19:41:20.415Z,54.43
2022-08-15T19:44:07.352Z,53.88
2022-08-15T19:46:56.549Z,54.17
2022-08-15T19:50:05.420Z,54.36
2022-08-15T19:52:49.113Z,54.60
2022-08-15T19:55:43.138Z,54.90
2022-08-15T19:58:31.799Z,54.99
2022-08-15T20:01:07.340Z,54.68
2022-08-15T20:03:43.906Z,55.00
2022-08-15T20:06:27.465Z,54.36
2022-08-15T20:09:04.794Z,54.59
2022-08-15T20:12:06.734Z,54.15
2022-08-15T20:14:46.334Z,54.35
2022-08-15T20:17:59.235Z,54.24
2022-08-15T20:20:59.301Z,54.17
2022-08-15T20:24:00.082Z,53.49
2022-08-15T20:26:54.098Z,53.29
2022-08-15T20:29:43.950Z,53.54
2022-08-15T20:32:45.810Z,53.57
2022-08-15T20:35:17.084Z,53.76
2022-08-15T20:37:53.502Z,54.22
2022-08-15T20:40:26.362Z,54.12
2022-08-15T20:42:59.820Z,54.17
2022-08-15T20:45:33.836Z,54.39
2022-08-15T20:48:44.005Z,54.44
2022-08-15T20:51:09.091Z,54.80
2022-08-15T20:53:41.011Z,54.81
2022-08-15T20:56:08.803Z,54.82
2022-08-15T20:59:01.922Z,54.81
2022-08-15T21:01:33.387Z,54.69
2022-08-15T21:04:22.259Z,54.71
2022-08-15T21:06:59.480Z,55.12
2022-08-15T21:09:43.905Z,55.24
2022-08-15T21:12:30.722Z,54.78
2022-08-15T21:16:03.269Z,54.92
2022-08-15T21:18:45.178Z,55.43
2022-08-15T21:21:26.349Z,56.16
2022-08-15T21:24:03.284Z,55.65
2022-08-15T21:26:40.469Z,55.24
2022-08-15T21:29:27.885Z,55.34
2022-08-15T21:31:58.206Z,55.50
2022-08-15T21:34:36.508Z,55.54
2022-08-15T21:37:12.244Z,55.68
2022-08-15T21:40:31.730Z,56.36
2022-08-15T21:42:59.154Z,55.60
2022-08-15T21:45:42.865Z,55.99
2022-08-15T21:48:35.246Z,56.30
2022-08-15T21:51:35.930Z,55.73
2022-08-15T21:54:25.465Z,55.98
2022-08-15T21:57:00.595Z,55.89
2022-08-15T22:00:19.163Z,54.66
2022-08-15T22:03:14.263Z,55.64
2022-08-15T22:05:52.217Z,55.08
2022-08-15T22:08:57.812Z,55.69
2022-08-15T22:11:40.619Z,55.99
2022-08-15T22:14:08.244Z,55.89
2022-08-15T22:17:01.334Z,56.73
2022-08-15T22:19:28.655Z,58.00
2022-08-15T22:22:08.699Z,58.16
2022-08-15T22:24:47.995Z,58.89
2022-08-15T22:27:21.434Z,59.58
2022-08-15T22:29:50.839Z,60.43
2022-08-15T22:32:31.236Z,60.77
2022-08-15T22:34:59.827Z,60.87
2022-08-15T22:37:34.550Z,61.33
2022-08-15T22:40:17.064Z,61.62
2022-08-15T22:43:02.087Z,61.03
2022-08-15T22:45:47.425Z,60.26
2022-08-15T22:48:24.795Z,59.00
2022-08-15T22:51:01.616Z,58.19
2022-08-15T22:53:38.297Z,58.42
2022-08-15T22:56:45.152Z,57.79
2022-08-15T22:58:58.886Z,56.71
2022-08-15T23:01:32.663Z,58.49
2022-08-15T23:04:40.431Z,58.10
2022-08-15T23:07:21.205Z,58.74
2022-08-15T23:09:56.997Z,58.92
2022-08-15T23:12:32.363Z,59.06
2022-08-15T23:15:07.511Z,58.91
2022-08-15T23:17:45.672Z,58.31
2022-08-15T23:20:38.733Z,59.04
2022-08-15T23:23:11.007Z,59.57
2022-08-15T23:25:49.687Z,58.22
2022-08-15T23:28:29.961Z,59.02
2022-08-15T23:31:09.437Z,59.40
2022-08-15T23:33:54.716Z,60.37
2022-08-15T23:36:59.693Z,60.44
2022-08-15T23:39:46.259Z,61.30
2022-08-15T23:42:12.926Z,59.50
2022-08-15T23:44:42.590Z,59.96
2022-08-15T23:47:13.267Z,60.32
2022-08-15T23:49:41.658Z,59.15
2022-08-15T23:52:18.103Z,58.67
2022-08-15T23:54:46.075Z,57.46
2022-08-15T23:57:15.660Z,57.20
2022-08-15T23:59:55.877Z,57.15
